Time;durP1;ratioP1;P1;durP2;ratioP2;P2;SDS_P1;SDS_P2;PMS_P1;PMS_P2;Temp;Humidity;BMP_temperature;BMP_pressure;BME280_temperature;BME280_humidity;BME280_pressure;Samples;Min_cycle;Max_cycle;Signal;HPM_P1;HPM_P2
2022/05/16 00:00:29;;;;;;;3.30;2.05;;;;;;;;;;5044698;28;21817;-84
2022/05/16 00:02:56;;;;;;;5.47;3.28;;;;;;;;;;5046976;28;20550;-83
2022/05/16 00:05:24;;;;;;;3.28;2.13;;;;;;;;;;5048347;28;20204;-82
2022/05/16 00:07:53;;;;;;;3.55;2.30;;;;;;;;;;5051380;28;20200;-82
2022/05/16 00:10:21;;;;;;;4.50;1.90;;;;;;;;;;5047086;28;20199;-83
2022/05/16 00:12:48;;;;;;;2.58;2.05;;;;;;;;;;5045569;28;20230;-81
2022/05/16 00:15:17;;;;;;;2.90;2.30;;;;;;;;;;5041185;28;20194;-82
2022/05/16 00:17:44;;;;;;;2.75;1.90;;;;;;;;;;5039104;28;20203;-82
2022/05/16 00:20:11;;;;;;;3.50;2.20;;;;;;;;;;5045749;28;20196;-82
2022/05/16 00:22:39;;;;;;;4.32;2.22;;;;;;;;;;5046130;28;20214;-80
2022/05/16 00:25:07;;;;;;;3.33;2.33;;;;;;;;;;5034024;28;20195;-82
2022/05/16 00:27:35;;;;;;;4.20;2.30;;;;;;;;;;5031804;28;20203;-81
2022/05/16 00:30:02;;;;;;;2.88;1.60;;;;;;;;;;5044999;28;20198;-83
2022/05/16 00:32:29;;;;;;;3.00;1.95;;;;;;;;;;5045768;28;20225;-82
2022/05/16 00:34:56;;;;;;;4.07;1.92;;;;;;;;;;5046764;28;20203;-83
2022/05/16 00:37:23;;;;;;;2.92;1.75;;;;;;;;;;5050219;28;20203;-81
2022/05/16 00:39:50;;;;;;;7.55;2.22;;;;;;;;;;5039206;28;20214;-82
2022/05/16 00:42:19;;;;;;;2.53;2.22;;;;;;;;;;5042199;28;20218;-81
2022/05/16 00:44:48;;;;;;;5.60;2.33;;;;;;;;;;5047703;28;20566;-81
2022/05/16 00:47:16;;;;;;;3.83;1.77;;;;;;;;;;5038372;28;20587;-82
2022/05/16 00:49:45;;;;;;;2.85;1.77;;;;;;;;;;5046880;28;20302;-82
2022/05/16 00:52:15;;;;;;;4.50;1.90;;;;;;;;;;5048656;28;20673;-83
2022/05/16 00:54:45;;;;;;;3.42;2.00;;;;;;;;;;5043730;28;20195;-83
2022/05/16 00:57:14;;;;;;;3.50;1.88;;;;;;;;;;5044381;28;20199;-83
2022/05/16 00:59:43;;;;;;;2.20;1.50;;;;;;;;;;5042107;28;20203;-83
2022/05/16 01:04:56;;;;;;;6.65;2.55;;;;;;;;;;5044510;28;20214;-82
2022/05/16 01:07:26;;;;;;;3.42;1.90;;;;;;;;;;5041323;28;20222;-82
2022/05/16 01:09:53;;;;;;;5.90;2.58;;;;;;;;;;5049206;28;20199;-82
2022/05/16 01:12:22;;;;;;;2.42;1.85;;;;;;;;;;5044064;28;20199;-83
2022/05/16 01:14:52;;;;;;;3.63;2.50;;;;;;;;;;5036789;28;20575;-82
2022/05/16 01:17:20;;;;;;;4.90;2.35;;;;;;;;;;5044445;28;20207;-83
2022/05/16 01:19:47;;;;;;;3.13;2.20;;;;;;;;;;5044317;28;20200;-82
2022/05/16 01:22:30;;;;;;;5.40;2.40;;;;;;;;;;5047908;28;20194;-82
2022/05/16 01:24:58;;;;;;;2.97;2.28;;;;;;;;;;5045138;28;20217;-83
2022/05/16 01:27:25;;;;;;;3.55;2.03;;;;;;;;;;5044328;28;20527;-83
2022/05/16 01:29:52;;;;;;;11.65;2.92;;;;;;;;;;5033665;28;20205;-84
2022/05/16 01:32:20;;;;;;;3.63;2.10;;;;;;;;;;5043694;28;20198;-83
2022/05/16 01:34:47;;;;;;;3.55;2.30;;;;;;;;;;5045458;28;20293;-83
2022/05/16 01:37:14;;;;;;;4.80;2.50;;;;;;;;;;5046817;28;20207;-83
2022/05/16 01:39:42;;;;;;;4.05;2.50;;;;;;;;;;5044405;28;20570;-83
2022/05/16 01:42:14;;;;;;;4.95;2.40;;;;;;;;;;5045501;28;20212;-82
2022/05/16 01:44:41;;;;;;;6.13;2.20;;;;;;;;;;5033235;28;20224;-81
2022/05/16 01:47:08;;;;;;;2.75;1.95;;;;;;;;;;5047037;28;20199;-82
2022/05/16 01:49:36;;;;;;;8.00;3.40;;;;;;;;;;5041137;28;20566;-82
2022/05/16 01:52:03;;;;;;;2.67;1.75;;;;;;;;;;5037845;28;20203;-82
2022/05/16 01:54:30;;;;;;;3.92;2.30;;;;;;;;;;5048663;28;20720;-82
2022/05/16 01:56:58;;;;;;;5.20;2.90;;;;;;;;;;5041356;28;20685;-82
2022/05/16 01:59:25;;;;;;;2.05;1.85;;;;;;;;;;5045942;28;20203;-80
2022/05/16 02:01:52;;;;;;;2.47;1.85;;;;;;;;;;5043125;28;20666;-81
2022/05/16 02:04:20;;;;;;;2.80;2.03;;;;;;;;;;5042459;28;20199;-83
2022/05/16 02:06:47;;;;;;;2.25;1.85;;;;;;;;;;5039629;28;20199;-82
2022/05/16 02:09:14;;;;;;;3.70;1.90;;;;;;;;;;5041797;28;20211;-81
2022/05/16 02:11:41;;;;;;;4.00;2.25;;;;;;;;;;5046296;28;20198;-82
2022/05/16 02:14:10;;;;;;;3.65;2.40;;;;;;;;;;5039198;28;20219;-82
2022/05/16 02:16:37;;;;;;;4.65;2.60;;;;;;;;;;5038687;28;20202;-78
2022/05/16 02:19:04;;;;;;;3.67;2.42;;;;;;;;;;5045892;28;20204;-75
2022/05/16 02:27:00;;;;;;;3.75;2.55;;;;;;;;;;5042231;28;20345;-74
2022/05/16 02:29:29;;;;;;;2.30;1.77;;;;;;;;;;5047757;28;20195;-75
2022/05/16 02:31:56;;;;;;;3.33;2.03;;;;;;;;;;5050242;28;20206;-75
2022/05/16 02:34:23;;;;;;;5.47;2.28;;;;;;;;;;5044431;28;20229;-75
2022/05/16 02:36:52;;;;;;;3.35;2.38;;;;;;;;;;5047708;28;20203;-77
2022/05/16 02:39:19;;;;;;;3.55;2.00;;;;;;;;;;5039880;28;20235;-76
2022/05/16 02:41:46;;;;;;;3.63;2.22;;;;;;;;;;5041879;28;20230;-75
2022/05/16 02:44:14;;;;;;;1.92;1.73;;;;;;;;;;5043998;28;20198;-75
2022/05/16 02:46:43;;;;;;;4.50;2.40;;;;;;;;;;5047116;28;20571;-74
2022/05/16 02:49:10;;;;;;;4.95;2.50;;;;;;;;;;5045260;28;20646;-73
2022/05/16 02:51:37;;;;;;;6.28;2.08;;;;;;;;;;5040384;28;20214;-77
2022/05/16 02:54:04;;;;;;;5.10;2.40;;;;;;;;;;5050257;28;20219;-75
2022/05/16 02:56:31;;;;;;;2.45;2.25;;;;;;;;;;5049823;28;20570;-75
2022/05/16 02:58:59;;;;;;;4.05;2.00;;;;;;;;;;5051769;28;20214;-74
2022/05/16 03:01:26;;;;;;;3.78;2.00;;;;;;;;;;5043927;28;20261;-76
2022/05/16 03:03:55;;;;;;;2.22;1.73;;;;;;;;;;5049452;28;20681;-74
2022/05/16 03:06:22;;;;;;;2.78;2.40;;;;;;;;;;5046316;28;20195;-75
2022/05/16 03:08:49;;;;;;;4.95;2.22;;;;;;;;;;5052080;28;20206;-75
2022/05/16 03:11:16;;;;;;;4.03;2.20;;;;;;;;;;5044660;28;20225;-75
2022/05/16 03:13:43;;;;;;;6.32;2.85;;;;;;;;;;5039628;28;20212;-74
2022/05/16 03:16:10;;;;;;;7.53;2.38;;;;;;;;;;5040868;28;20195;-74
2022/05/16 03:18:37;;;;;;;3.17;2.10;;;;;;;;;;5051165;28;20662;-74
2022/05/16 03:21:06;;;;;;;2.88;2.53;;;;;;;;;;5040652;28;20221;-76
2022/05/16 03:23:33;;;;;;;3.25;1.98;;;;;;;;;;5051033;28;20195;-75
2022/05/16 03:26:00;;;;;;;3.22;1.85;;;;;;;;;;5051646;28;20203;-75
2022/05/16 03:28:27;;;;;;;3.15;2.35;;;;;;;;;;5050960;28;20202;-76
2022/05/16 03:30:57;;;;;;;3.55;2.65;;;;;;;;;;5043585;28;20199;-77
2022/05/16 03:33:24;;;;;;;3.55;2.55;;;;;;;;;;5052372;28;20211;-76
2022/05/16 03:35:55;;;;;;;4.57;1.77;;;;;;;;;;5049751;28;20206;-74
2022/05/16 03:41:08;;;;;;;3.75;2.08;;;;;;;;;;5041711;28;20312;-74
2022/05/16 03:43:36;;;;;;;6.00;3.03;;;;;;;;;;5038913;28;20196;-76
2022/05/16 03:46:04;;;;;;;1.95;1.75;;;;;;;;;;5042834;28;20221;-74
2022/05/16 03:48:31;;;;;;;5.70;2.40;;;;;;;;;;5042054;28;20210;-74
2022/05/16 03:50:58;;;;;;;9.10;2.88;;;;;;;;;;5038228;28;20191;-78
2022/05/16 03:53:26;;;;;;;4.32;2.17;;;;;;;;;;5047830;28;20704;-74
2022/05/16 03:55:54;;;;;;;4.25;2.22;;;;;;;;;;5047936;28;20211;-74
2022/05/16 03:58:21;;;;;;;2.40;2.05;;;;;;;;;;5051883;28;20302;-74
2022/05/16 04:00:48;;;;;;;4.80;2.38;;;;;;;;;;5035598;28;20196;-75
2022/05/16 04:03:15;;;;;;;2.20;1.70;;;;;;;;;;5035930;28;20199;-74
2022/05/16 04:05:42;;;;;;;5.03;2.90;;;;;;;;;;5040314;28;20639;-75
2022/05/16 04:08:10;;;;;;;5.53;2.10;;;;;;;;;;5051619;28;20187;-74
2022/05/16 04:10:39;;;;;;;4.65;1.67;;;;;;;;;;5045581;28;20686;-76
2022/05/16 04:13:06;;;;;;;2.63;1.90;;;;;;;;;;5039606;28;20293;-74
2022/05/16 04:15:33;;;;;;;3.53;2.03;;;;;;;;;;5040993;28;20219;-75
2022/05/16 04:18:00;;;;;;;4.07;2.65;;;;;;;;;;5044370;28;20198;-73
2022/05/16 04:20:27;;;;;;;4.40;2.25;;;;;;;;;;5043023;28;20210;-76
2022/05/16 04:22:54;;;;;;;3.22;1.90;;;;;;;;;;5049228;28;20226;-75
2022/05/16 04:25:22;;;;;;;4.95;2.13;;;;;;;;;;5040165;28;20200;-75
2022/05/16 04:27:51;;;;;;;4.97;2.40;;;;;;;;;;5048588;28;20656;-74
2022/05/16 04:30:18;;;;;;;2.63;1.80;;;;;;;;;;5048083;28;20780;-74
2022/05/16 04:32:45;;;;;;;2.72;1.92;;;;;;;;;;5050359;28;20203;-76
2022/05/16 04:35:12;;;;;;;3.75;2.30;;;;;;;;;;5042249;28;20216;-74
2022/05/16 04:37:39;;;;;;;3.45;1.90;;;;;;;;;;5043900;28;20210;-75
2022/05/16 04:40:08;;;;;;;2.92;2.10;;;;;;;;;;5050207;28;20191;-74
2022/05/16 04:42:44;;;;;;;3.28;2.13;;;;;;;;;;5042592;28;20211;-76
2022/05/16 04:45:16;;;;;;;4.88;2.20;;;;;;;;;;5037953;28;20282;-75
2022/05/16 04:47:43;;;;;;;2.65;1.90;;;;;;;;;;5046224;28;20191;-75
2022/05/16 04:50:11;;;;;;;4.05;2.00;;;;;;;;;;5047113;28;20207;-74
2022/05/16 04:52:38;;;;;;;2.67;1.90;;;;;;;;;;5045633;28;20226;-75
2022/05/16 04:55:06;;;;;;;3.17;2.05;;;;;;;;;;5048978;28;20562;-75
2022/05/16 04:57:34;;;;;;;4.93;2.05;;;;;;;;;;5047190;28;20675;-75
2022/05/16 05:00:01;;;;;;;8.45;2.28;;;;;;;;;;5044895;28;20654;-74
2022/05/16 05:02:29;;;;;;;4.88;2.33;;;;;;;;;;5043304;28;20966;-76
2022/05/16 05:04:56;;;;;;;9.68;2.78;;;;;;;;;;5044992;28;20316;-75
2022/05/16 05:07:24;;;;;;;2.88;2.20;;;;;;;;;;5048541;28;20210;-75
2022/05/16 05:15:20;;;;;;;4.20;2.30;;;;;;;;;;5046963;28;20261;-77
2022/05/16 05:17:48;;;;;;;5.88;2.70;;;;;;;;;;5040631;28;20612;-74
2022/05/16 05:20:16;;;;;;;6.35;2.05;;;;;;;;;;5046442;28;20194;-79
2022/05/16 05:22:43;;;;;;;2.47;1.70;;;;;;;;;;5044294;28;20582;-76
2022/05/16 05:25:11;;;;;;;3.45;2.03;;;;;;;;;;5042291;28;20210;-75
2022/05/16 05:27:39;;;;;;;4.85;1.80;;;;;;;;;;5043434;28;20249;-75
2022/05/16 05:30:07;;;;;;;3.63;2.60;;;;;;;;;;5046750;28;20195;-76
2022/05/16 05:32:34;;;;;;;4.57;2.60;;;;;;;;;;5046788;28;20210;-74
2022/05/16 05:35:03;;;;;;;4.60;2.15;;;;;;;;;;5047523;28;20220;-76
2022/05/16 05:37:30;;;;;;;3.95;2.40;;;;;;;;;;5038668;28;20240;-74
2022/05/16 05:40:00;;;;;;;5.63;2.45;;;;;;;;;;5046885;28;20213;-75
2022/05/16 05:42:27;;;;;;;3.20;2.25;;;;;;;;;;5047890;28;20215;-74
2022/05/16 05:44:54;;;;;;;3.00;1.70;;;;;;;;;;5045012;28;20202;-76
2022/05/16 05:47:22;;;;;;;7.15;2.38;;;;;;;;;;5044248;28;20214;-74
2022/05/16 05:49:49;;;;;;;9.68;4.82;;;;;;;;;;5039072;28;20200;-79
2022/05/16 05:52:17;;;;;;;6.75;3.28;;;;;;;;;;5044079;28;20600;-76
2022/05/16 05:54:44;;;;;;;4.97;2.70;;;;;;;;;;5048053;28;20223;-78
2022/05/16 05:57:12;;;;;;;6.07;3.35;;;;;;;;;;5040917;28;20196;-76
2022/05/16 05:59:39;;;;;;;6.75;2.42;;;;;;;;;;5034201;28;20204;-74
2022/05/16 06:02:08;;;;;;;6.30;2.65;;;;;;;;;;5043969;28;20681;-77
2022/05/16 06:04:35;;;;;;;4.38;2.42;;;;;;;;;;5046866;28;20207;-77
2022/05/16 06:07:02;;;;;;;2.60;1.83;;;;;;;;;;5045721;28;20272;-78
2022/05/16 06:09:31;;;;;;;4.55;2.95;;;;;;;;;;5052946;28;20206;-77
2022/05/16 06:11:59;;;;;;;5.05;2.35;;;;;;;;;;5051162;28;20620;-77
2022/05/16 06:14:26;;;;;;;4.90;2.55;;;;;;;;;;5051383;28;20223;-77
2022/05/16 06:16:53;;;;;;;8.55;3.30;;;;;;;;;;5052212;28;20206;-78
2022/05/16 06:19:20;;;;;;;3.90;2.30;;;;;;;;;;5048546;28;20199;-78
2022/05/16 06:21:47;;;;;;;6.35;2.92;;;;;;;;;;5046081;28;20208;-77
2022/05/16 06:26:57;;;;;;;4.22;1.88;;;;;;;;;;5044304;28;20195;-78
2022/05/16 06:29:25;;;;;;;10.48;4.00;;;;;;;;;;5051825;28;20199;-86
2022/05/16 06:31:52;;;;;;;9.65;4.35;;;;;;;;;;5044661;28;20205;-87
2022/05/16 06:34:19;;;;;;;13.73;4.50;;;;;;;;;;5049598;28;20262;-87
2022/05/16 06:36:47;;;;;;;14.53;3.30;;;;;;;;;;5051905;28;20989;-88
2022/05/16 06:39:14;;;;;;;9.33;4.07;;;;;;;;;;5054167;28;20462;-82
2022/05/16 06:41:42;;;;;;;8.70;2.83;;;;;;;;;;5042064;28;20832;-79
2022/05/16 06:44:14;;;;;;;9.40;3.33;;;;;;;;;;5047684;28;20481;-80
2022/05/16 06:46:41;;;;;;;7.47;2.80;;;;;;;;;;5050004;28;21002;-79
2022/05/16 06:49:08;;;;;;;7.20;2.77;;;;;;;;;;5041947;28;20967;-80
2022/05/16 06:51:35;;;;;;;6.33;3.00;;;;;;;;;;5043629;28;20458;-79
2022/05/16 06:54:03;;;;;;;7.50;3.23;;;;;;;;;;5040822;28;21017;-79
2022/05/16 06:56:30;;;;;;;6.05;3.05;;;;;;;;;;5042598;28;20457;-78
2022/05/16 06:58:57;;;;;;;6.63;3.40;;;;;;;;;;5049969;28;20617;-80
2022/05/16 07:01:26;;;;;;;4.38;2.78;;;;;;;;;;5042503;28;20686;-79
2022/05/16 07:03:53;;;;;;;6.90;2.55;;;;;;;;;;5040300;28;20654;-79
2022/05/16 07:06:20;;;;;;;6.93;3.00;;;;;;;;;;5048581;28;20459;-83
2022/05/16 07:08:47;;;;;;;4.72;3.20;;;;;;;;;;5050129;28;20286;-82
2022/05/16 07:11:14;;;;;;;7.72;3.75;;;;;;;;;;5044799;28;20194;-83
2022/05/16 07:13:41;;;;;;;8.55;3.83;;;;;;;;;;5047437;28;20200;-83
2022/05/16 07:16:08;;;;;;;11.80;4.07;;;;;;;;;;5041665;28;20215;-82
2022/05/16 07:18:36;;;;;;;9.70;3.25;;;;;;;;;;5051269;28;20218;-83
2022/05/16 07:21:04;;;;;;;9.32;3.05;;;;;;;;;;5040993;28;20195;-82
2022/05/16 07:23:32;;;;;;;13.70;4.00;;;;;;;;;;5050734;28;20206;-80
2022/05/16 07:28:44;;;;;;;11.60;4.22;;;;;;;;;;5045634;28;20198;-85
2022/05/16 07:31:11;;;;;;;9.45;3.45;;;;;;;;;;5045452;28;20199;-80
2022/05/16 07:33:39;;;;;;;17.90;4.50;;;;;;;;;;5048711;28;20210;-80
2022/05/16 07:36:07;;;;;;;6.78;3.65;;;;;;;;;;5049394;28;20221;-81
2022/05/16 07:38:34;;;;;;;9.50;4.25;;;;;;;;;;5048081;28;20477;-80
2022/05/16 07:41:01;;;;;;;9.00;3.50;;;;;;;;;;5048556;28;20199;-79
2022/05/16 07:43:30;;;;;;;6.65;4.82;;;;;;;;;;5036599;28;20623;-80
2022/05/16 07:45:57;;;;;;;8.30;2.97;;;;;;;;;;5040111;28;20214;-79
2022/05/16 07:48:24;;;;;;;4.20;2.50;;;;;;;;;;5045184;28;20209;-80
2022/05/16 07:50:53;;;;;;;5.75;3.30;;;;;;;;;;5042361;28;20192;-79
2022/05/16 07:53:20;;;;;;;4.50;2.55;;;;;;;;;;5043836;28;20214;-79
2022/05/16 07:55:50;;;;;;;6.32;3.30;;;;;;;;;;5051049;28;20215;-79
2022/05/16 07:58:19;;;;;;;5.85;2.88;;;;;;;;;;5039391;28;20199;-79
2022/05/16 08:00:48;;;;;;;6.28;2.33;;;;;;;;;;5043506;28;20195;-78
2022/05/16 08:03:16;;;;;;;7.80;3.63;;;;;;;;;;5042518;28;20291;-78
2022/05/16 08:05:43;;;;;;;6.00;2.25;;;;;;;;;;5052286;28;20203;-77
2022/05/16 08:10:57;;;;;;;4.60;2.63;;;;;;;;;;5050146;28;20197;-79
2022/05/16 08:13:24;;;;;;;4.05;2.65;;;;;;;;;;5047687;28;20203;-79
2022/05/16 08:15:51;;;;;;;7.82;2.75;;;;;;;;;;5037447;28;20226;-79
2022/05/16 08:18:18;;;;;;;4.00;2.15;;;;;;;;;;5046146;28;20214;-78
2022/05/16 08:20:46;;;;;;;2.67;1.95;;;;;;;;;;5045638;28;20206;-79
2022/05/16 08:23:16;;;;;;;3.35;2.40;;;;;;;;;;5037995;28;20302;-80
2022/05/16 08:25:45;;;;;;;7.03;2.10;;;;;;;;;;5050501;28;20195;-79
2022/05/16 08:28:12;;;;;;;5.28;1.90;;;;;;;;;;5050507;28;20259;-79
2022/05/16 08:30:39;;;;;;;3.88;2.45;;;;;;;;;;5047047;28;20199;-79
2022/05/16 08:33:07;;;;;;;4.82;2.10;;;;;;;;;;5039715;28;20198;-79
2022/05/16 08:35:35;;;;;;;3.80;2.70;;;;;;;;;;5046021;28;20219;-80
2022/05/16 08:40:54;;;;;;;3.72;2.53;;;;;;;;;;5044953;28;20201;-79
2022/05/16 08:43:36;;;;;;;4.68;2.47;;;;;;;;;;5045180;28;20205;-78
2022/05/16 08:46:05;;;;;;;14.55;2.50;;;;;;;;;;5040134;28;20191;-79
2022/05/16 08:48:34;;;;;;;3.47;1.83;;;;;;;;;;5047914;28;20203;-79
2022/05/16 08:51:04;;;;;;;3.78;2.15;;;;;;;;;;5031688;28;20196;-79
2022/05/16 08:53:33;;;;;;;5.15;2.28;;;;;;;;;;5042464;28;20706;-79
2022/05/16 08:56:04;;;;;;;5.25;1.83;;;;;;;;;;5052014;28;20222;-78
2022/05/16 08:58:34;;;;;;;4.00;2.70;;;;;;;;;;5037390;28;20222;-80
2022/05/16 09:01:03;;;;;;;3.13;2.25;;;;;;;;;;5043491;28;20212;-79
2022/05/16 09:03:35;;;;;;;1.85;1.73;;;;;;;;;;5049153;28;20195;-80
2022/05/16 09:06:05;;;;;;;3.70;2.23;;;;;;;;;;5039119;28;20208;-79
2022/05/16 09:08:40;;;;;;;3.20;2.60;;;;;;;;;;5049350;28;20454;-78
2022/05/16 09:11:09;;;;;;;3.83;2.17;;;;;;;;;;5041019;28;20489;-78
2022/05/16 09:13:45;;;;;;;2.53;2.33;;;;;;;;;;5049347;28;20451;-80
2022/05/16 09:16:16;;;;;;;4.63;2.42;;;;;;;;;;5043690;28;20483;-80
2022/05/16 09:18:49;;;;;;;2.80;1.70;;;;;;;;;;5045111;28;20199;-81
2022/05/16 09:21:19;;;;;;;4.07;2.45;;;;;;;;;;5040681;28;20202;-81
2022/05/16 09:23:50;;;;;;;2.92;2.63;;;;;;;;;;5037531;28;20687;-81
2022/05/16 09:26:33;;;;;;;3.42;1.83;;;;;;;;;;5045683;28;20188;-78
2022/05/16 09:29:02;;;;;;;4.78;2.45;;;;;;;;;;5048150;28;20844;-82
2022/05/16 09:31:31;;;;;;;5.00;2.83;;;;;;;;;;5039561;28;20203;-79
2022/05/16 09:34:00;;;;;;;3.35;2.20;;;;;;;;;;5046580;28;20198;-80
2022/05/16 09:36:33;;;;;;;3.78;2.10;;;;;;;;;;5048072;28;20223;-79
2022/05/16 09:39:00;;;;;;;3.40;2.00;;;;;;;;;;5052300;28;20558;-79
2022/05/16 09:41:37;;;;;;;6.22;2.08;;;;;;;;;;5042264;28;20587;-80
2022/05/16 09:44:06;;;;;;;3.30;2.17;;;;;;;;;;5051026;28;20190;-79
2022/05/16 09:46:35;;;;;;;5.40;2.97;;;;;;;;;;5051967;28;20206;-77
2022/05/16 09:49:11;;;;;;;2.53;2.30;;;;;;;;;;5041728;28;20196;-79
2022/05/16 09:51:42;;;;;;;4.63;2.50;;;;;;;;;;5041864;28;20264;-77
2022/05/16 09:54:15;;;;;;;5.05;2.15;;;;;;;;;;5054100;28;20570;-79
2022/05/16 09:56:55;;;;;;;5.20;2.25;;;;;;;;;;5049857;28;20215;-79
2022/05/16 09:59:34;;;;;;;7.60;2.60;;;;;;;;;;5051980;28;20257;-80
2022/05/16 10:02:08;;;;;;;2.67;2.25;;;;;;;;;;5044669;28;20188;-78
2022/05/16 10:04:40;;;;;;;2.20;1.70;;;;;;;;;;5048375;28;20225;-79
2022/05/16 10:07:07;;;;;;;4.75;2.10;;;;;;;;;;5045429;28;20207;-79
2022/05/16 10:09:37;;;;;;;4.03;1.70;;;;;;;;;;5053861;28;20198;-78
2022/05/16 10:12:08;;;;;;;7.47;2.83;;;;;;;;;;5036946;28;20714;-81
2022/05/16 10:14:37;;;;;;;24.92;4.57;;;;;;;;;;5038457;28;20199;-83
2022/05/16 10:17:05;;;;;;;9.23;3.60;;;;;;;;;;5042040;28;20955;-78
2022/05/16 10:19:33;;;;;;;6.97;3.30;;;;;;;;;;5045167;28;20195;-78
2022/05/16 10:22:03;;;;;;;8.90;3.80;;;;;;;;;;5040048;28;20204;-77
2022/05/16 10:24:31;;;;;;;9.05;3.10;;;;;;;;;;5045908;28;20236;-80
2022/05/16 10:27:01;;;;;;;8.35;2.33;;;;;;;;;;5031733;28;20249;-79
2022/05/16 10:29:31;;;;;;;6.40;2.60;;;;;;;;;;5033936;28;20210;-78
2022/05/16 10:34:48;;;;;;;7.13;2.60;;;;;;;;;;5049186;28;20198;-78
2022/05/16 10:37:15;;;;;;;4.75;2.30;;;;;;;;;;5043816;28;20226;-79
2022/05/16 10:39:44;;;;;;;3.47;2.42;;;;;;;;;;5044394;28;20191;-79
2022/05/16 10:42:13;;;;;;;4.60;2.63;;;;;;;;;;5050986;28;20732;-77
2022/05/16 10:44:46;;;;;;;5.17;3.03;;;;;;;;;;5041727;28;20203;-77
2022/05/16 10:47:15;;;;;;;8.60;3.27;;;;;;;;;;5042539;28;20550;-79
2022/05/16 10:49:45;;;;;;;3.03;2.58;;;;;;;;;;5042530;28;20469;-78
2022/05/16 10:52:23;;;;;;;2.80;2.50;;;;;;;;;;5044718;28;20202;-79
2022/05/16 10:54:50;;;;;;;6.20;2.67;;;;;;;;;;5048176;28;20825;-78
2022/05/16 10:57:22;;;;;;;6.87;2.80;;;;;;;;;;5048815;28;20888;-79
2022/05/16 10:59:58;;;;;;;4.27;2.40;;;;;;;;;;5048083;28;20465;-78
2022/05/16 11:02:30;;;;;;;4.00;2.23;;;;;;;;;;5041397;28;20962;-79
2022/05/16 11:05:02;;;;;;;5.97;2.60;;;;;;;;;;5048500;28;20528;-77
2022/05/16 11:07:34;;;;;;;6.37;2.33;;;;;;;;;;5034565;28;20454;-79
2022/05/16 11:10:03;;;;;;;4.53;2.73;;;;;;;;;;5044634;28;20463;-79
2022/05/16 11:12:33;;;;;;;4.73;2.70;;;;;;;;;;5045781;28;20434;-78
2022/05/16 11:15:06;;;;;;;5.07;2.57;;;;;;;;;;5042163;28;20463;-79
2022/05/16 11:17:36;;;;;;;3.53;2.23;;;;;;;;;;5038657;28;20919;-77
2022/05/16 11:20:08;;;;;;;3.30;2.03;;;;;;;;;;5042119;28;20462;-79
2022/05/16 11:22:38;;;;;;;7.50;2.30;;;;;;;;;;5034679;28;20967;-77
2022/05/16 11:25:08;;;;;;;4.00;2.30;;;;;;;;;;5039827;28;20471;-78
2022/05/16 11:27:39;;;;;;;3.20;2.33;;;;;;;;;;5045075;28;20442;-79
2022/05/16 11:30:10;;;;;;;3.50;2.30;;;;;;;;;;5047927;28;20764;-79
2022/05/16 11:32:51;;;;;;;3.40;2.07;;;;;;;;;;5048024;28;20876;-78
2022/05/16 11:35:20;;;;;;;8.30;2.70;;;;;;;;;;5037540;28;20455;-78
2022/05/16 11:37:55;;;;;;;7.00;2.37;;;;;;;;;;5046194;28;20575;-78
2022/05/16 11:40:25;;;;;;;6.10;2.70;;;;;;;;;;5041259;28;20505;-80
2022/05/16 11:42:56;;;;;;;5.33;2.13;;;;;;;;;;5048947;28;20812;-78
2022/05/16 11:45:31;;;;;;;2.83;1.90;;;;;;;;;;5047236;28;20467;-78
2022/05/16 11:48:13;;;;;;;3.93;2.17;;;;;;;;;;5045517;28;20463;-78
2022/05/16 11:50:43;;;;;;;3.63;1.93;;;;;;;;;;5029843;28;20456;-78
2022/05/16 11:53:32;;;;;;;5.10;2.37;;;;;;;;;;5037862;28;20489;-79
2022/05/16 12:01:33;;;;;;;3.07;1.70;;;;;;;;;;5034860;28;20460;-78
2022/05/16 12:04:12;;;;;;;3.40;2.00;;;;;;;;;;5041065;28;20868;-77
2022/05/16 12:06:40;;;;;;;2.30;2.10;;;;;;;;;;5047383;28;20920;-78
2022/05/16 12:09:16;;;;;;;5.40;2.47;;;;;;;;;;5038838;28;20464;-79
2022/05/16 12:11:51;;;;;;;3.50;2.20;;;;;;;;;;5041034;28;20448;-79
2022/05/16 12:14:25;;;;;;;3.23;1.70;;;;;;;;;;5029291;28;20494;-78
2022/05/16 12:16:55;;;;;;;3.03;2.30;;;;;;;;;;5040736;28;20993;-78
2022/05/16 12:19:27;;;;;;;3.63;2.13;;;;;;;;;;5044618;28;20471;-78
2022/05/16 12:21:56;;;;;;;4.30;2.53;;;;;;;;;;5039174;28;20496;-78
2022/05/16 12:24:32;;;;;;;2.00;1.70;;;;;;;;;;5039629;28;20461;-78
2022/05/16 12:27:04;;;;;;;4.57;2.67;;;;;;;;;;5066548;28;20651;-78
2022/05/16 12:29:33;;;;;;;3.13;2.20;;;;;;;;;;5045886;28;20551;-78
2022/05/16 12:32:01;;;;;;;2.80;2.20;;;;;;;;;;5037111;28;21010;-79
2022/05/16 12:34:52;;;;;;;1.90;1.60;;;;;;;;;;5040975;28;20451;-79
2022/05/16 12:37:20;;;;;;;2.43;1.80;;;;;;;;;;5045234;28;20490;-79
2022/05/16 12:39:52;;;;;;;6.40;1.93;;;;;;;;;;5038666;28;20884;-79
2022/05/16 12:42:33;;;;;;;2.33;1.50;;;;;;;;;;5028616;28;20872;-79
2022/05/16 12:45:02;;;;;;;4.97;1.93;;;;;;;;;;5039227;28;20942;-78
2022/05/16 12:47:56;;;;;;;2.40;2.03;;;;;;;;;;5040190;28;20551;-80
2022/05/16 12:50:29;;;;;;;3.73;1.93;;;;;;;;;;5042909;28;20840;-79
2022/05/16 12:53:07;;;;;;;4.37;2.00;;;;;;;;;;5044201;28;20825;-79
2022/05/16 12:55:51;;;;;;;3.30;1.73;;;;;;;;;;5047262;28;20974;-78
2022/05/16 12:58:23;;;;;;;7.27;2.30;;;;;;;;;;5041931;28;20462;-78
2022/05/16 13:00:51;;;;;;;5.90;2.43;;;;;;;;;;5046226;28;20547;-78
2022/05/16 13:03:23;;;;;;;2.77;2.20;;;;;;;;;;5044262;28;20471;-77
2022/05/16 13:05:58;;;;;;;2.50;2.20;;;;;;;;;;5038471;28;20489;-78
2022/05/16 13:08:31;;;;;;;2.20;2.00;;;;;;;;;;5048533;28;20436;-77
2022/05/16 13:11:05;;;;;;;4.13;2.10;;;;;;;;;;5045435;28;20496;-79
2022/05/16 13:13:45;;;;;;;2.47;2.00;;;;;;;;;;5043090;28;20981;-80
2022/05/16 13:16:14;;;;;;;1.60;1.50;;;;;;;;;;5033337;28;21038;-78
2022/05/16 13:18:44;;;;;;;3.70;2.17;;;;;;;;;;5042172;28;20579;-78
2022/05/16 13:21:15;;;;;;;4.57;2.00;;;;;;;;;;5042304;28;20967;-78
2022/05/16 13:23:42;;;;;;;4.37;2.00;;;;;;;;;;5046519;28;20978;-76
2022/05/16 13:31:42;;;;;;;3.50;2.23;;;;;;;;;;5040229;28;20440;-79
2022/05/16 13:34:11;;;;;;;4.33;2.60;;;;;;;;;;5047835;28;20456;-79
2022/05/16 13:36:44;;;;;;;2.67;2.30;;;;;;;;;;5047912;28;20495;-78
2022/05/16 13:39:12;;;;;;;3.27;2.07;;;;;;;;;;5044494;28;20460;-78
2022/05/16 13:41:40;;;;;;;3.47;1.90;;;;;;;;;;5047070;28;20472;-80
2022/05/16 13:44:07;;;;;;;2.50;2.20;;;;;;;;;;5048362;28;20802;-80
2022/05/16 13:46:34;;;;;;;2.70;2.00;;;;;;;;;;5036132;28;20461;-80
2022/05/16 13:49:04;;;;;;;2.77;1.87;;;;;;;;;;5030409;28;20855;-79
2022/05/16 13:51:32;;;;;;;5.50;2.20;;;;;;;;;;5035113;28;21048;-79
2022/05/16 13:54:05;;;;;;;2.80;2.00;;;;;;;;;;5044134;28;20496;-78
2022/05/16 13:56:36;;;;;;;2.60;2.20;;;;;;;;;;5043171;28;20483;-81
2022/05/16 13:59:03;;;;;;;2.80;1.73;;;;;;;;;;5038078;28;20448;-79
2022/05/16 14:01:30;;;;;;;2.90;1.93;;;;;;;;;;5044483;28;20463;-79
2022/05/16 14:03:59;;;;;;;5.93;2.33;;;;;;;;;;5042118;28;20515;-79
2022/05/16 14:06:32;;;;;;;3.73;1.87;;;;;;;;;;5032841;28;20990;-79
2022/05/16 14:09:04;;;;;;;4.77;2.60;;;;;;;;;;5045932;28;20448;-78
2022/05/16 14:11:32;;;;;;;2.40;1.93;;;;;;;;;;5039739;28;20984;-79
2022/05/16 14:14:01;;;;;;;3.93;1.87;;;;;;;;;;5043535;28;20551;-79
2022/05/16 14:16:30;;;;;;;2.33;2.13;;;;;;;;;;5040041;28;20511;-78
2022/05/16 14:19:02;;;;;;;2.73;2.17;;;;;;;;;;5039923;28;20499;-78
2022/05/16 14:21:30;;;;;;;3.70;2.60;;;;;;;;;;5047110;28;20448;-79
2022/05/16 14:24:04;;;;;;;3.10;1.90;;;;;;;;;;5041393;28;20971;-78
2022/05/16 14:26:48;;;;;;;4.73;1.60;;;;;;;;;;5045071;28;20465;-79
2022/05/16 14:29:16;;;;;;;4.90;2.20;;;;;;;;;;5043048;28;20476;-81
2022/05/16 14:31:45;;;;;;;5.30;2.57;;;;;;;;;;5046908;28;20926;-78
2022/05/16 14:34:21;;;;;;;4.27;2.07;;;;;;;;;;5052579;28;20797;-79
2022/05/16 14:36:48;;;;;;;2.90;2.27;;;;;;;;;;5049456;28;20482;-77
2022/05/16 14:39:17;;;;;;;4.87;2.03;;;;;;;;;;5048812;28;20464;-80
2022/05/16 14:41:53;;;;;;;2.33;2.13;;;;;;;;;;5040099;28;20571;-79
2022/05/16 14:44:22;;;;;;;2.47;2.10;;;;;;;;;;5047158;28;20996;-79
2022/05/16 14:46:57;;;;;;;3.23;2.27;;;;;;;;;;5041780;28;20903;-79
2022/05/16 14:49:24;;;;;;;4.90;2.53;;;;;;;;;;5050159;28;20982;-78
2022/05/16 14:51:51;;;;;;;3.50;2.57;;;;;;;;;;5043234;28;20472;-78
2022/05/16 14:54:21;;;;;;;2.77;2.23;;;;;;;;;;5044227;28;20776;-79
2022/05/16 14:56:48;;;;;;;2.97;2.67;;;;;;;;;;5040874;28;20491;-79
2022/05/16 14:59:17;;;;;;;3.40;2.17;;;;;;;;;;5052980;28;20464;-79
2022/05/16 15:04:34;;;;;;;3.53;2.40;;;;;;;;;;5012633;28;20454;-81
2022/05/16 15:07:02;;;;;;;3.10;2.77;;;;;;;;;;5036376;28;20450;-79
2022/05/16 15:09:29;;;;;;;2.40;2.20;;;;;;;;;;5046437;28;20455;-79
2022/05/16 15:11:58;;;;;;;2.40;1.73;;;;;;;;;;5048471;28;20878;-79
2022/05/16 15:14:28;;;;;;;4.83;2.33;;;;;;;;;;5051004;28;20445;-78
2022/05/16 15:16:55;;;;;;;2.90;2.40;;;;;;;;;;5041242;28;20483;-78
2022/05/16 15:19:23;;;;;;;2.67;1.83;;;;;;;;;;5046559;28;20471;-79
2022/05/16 15:21:51;;;;;;;1.90;1.70;;;;;;;;;;5046639;28;20467;-79
2022/05/16 15:24:23;;;;;;;1.97;1.87;;;;;;;;;;5045220;28;20833;-80
2022/05/16 15:26:50;;;;;;;2.70;2.33;;;;;;;;;;5051054;28;20523;-80
2022/05/16 15:29:17;;;;;;;1.83;1.63;;;;;;;;;;5049563;28;20448;-80
2022/05/16 15:31:45;;;;;;;3.77;2.10;;;;;;;;;;5048515;28;20461;-82
2022/05/16 15:34:13;;;;;;;3.00;1.80;;;;;;;;;;5050478;28;21056;-81
2022/05/16 15:36:40;;;;;;;3.27;2.03;;;;;;;;;;5039064;28;20470;-80
2022/05/16 15:39:09;;;;;;;3.00;2.17;;;;;;;;;;5045463;28;20471;-80